CDT,Max TemperatureF,Mean TemperatureF,Min TemperatureF,Max Dew PointF,MeanDew PointF,Min DewpointF,Max Humidity, Mean Humidity, Min Humidity, Max Sea Level PressureIn, Mean Sea Level PressureIn, Min Sea Level PressureIn, Max VisibilityMiles, Mean VisibilityMiles, Min VisibilityMiles, Max Wind SpeedMPH, Mean Wind SpeedMPH, Max Gust SpeedMPH,PrecipitationIn, CloudCover, Events, WindDirDegrees
2012-10-1,73,58,42,48,41,34,93,58,23,30.02,29.97,29.94,10,10,7,21,5,33,0.00,0,,356
2012-10-2,71,54,37,45,35,30,87,53,25,30.02,29.97,29.90,10,10,1,9,3,,0.00,0,,343
2012-10-3,78,56,33,43,34,28,100,55,16,29.97,29.92,29.85,10,10,5,21,4,29,0.00,0,,178
2012-10-4,57,49,39,46,35,28,100,61,36,30.34,30.20,29.95,10,10,10,21,12,29,0.09,2,Rain,320
2012-10-5,48,39,30,32,26,19,93,64,32,30.36,30.32,30.27,10,10,10,16,6,25,0.00,0,,315
2012-10-6,46,36,26,25,22,19,86,60,37,30.39,30.34,30.31,10,10,10,17,10,28,0.00,3,,327
2012-10-7,55,36,17,28,21,18,100,60,25,30.33,30.21,30.06,10,10,7,17,4,25,0.00,0,,220
2012-10-8,68,50,33,34,29,25,87,52,20,30.05,29.93,29.83,10,10,10,24,10,34,0.00,0,,197
2012-10-9,53,42,30,43,31,19,87,61,28,30.16,29.98,29.84,10,10,10,24,7,33,0.00,1,,322
2012-10-10,59,42,26,28,24,16,93,55,20,30.26,30.17,30.08,10,10,5,16,4,22,0.00,0,,232
2012-10-11,62,48,35,34,29,25,81,52,27,30.39,30.16,30.05,10,10,10,21,9,26,0.00,1,,5
2012-10-12,60,44,28,43,24,12,80,48,16,30.42,30.30,30.03,10,10,10,18,9,26,0.00,3,,110
2012-10-13,71,62,53,64,59,46,100,88,69,30.03,29.80,29.66,10,9,2,22,11,30,0.88,7,Rain,186
2012-10-14,62,52,41,63,44,34,100,73,34,30.01,29.85,29.62,10,9,3,26,13,36,0.80,2,Rain,322
2012-10-15,71,52,33,45,39,34,100,67,29,30.03,29.96,29.82,10,10,7,12,2,9,0.00,0,,173
2012-10-16,75,62,48,50,45,39,93,63,27,29.81,29.58,29.46,10,10,10,15,7,20,0.00,0,,214
2012-10-17,62,53,44,52,40,21,94,58,34,29.60,29.49,29.36,10,10,10,33,12,43,0.06,3,Rain,266
2012-10-18,48,44,41,43,35,19,100,77,32,29.59,29.51,29.45,10,8,3,36,22,47,0.33,6,Rain,285
2012-10-19,44,42,39,43,41,39,100,94,87,29.85,29.74,29.58,10,8,2,26,20,37,0.04,8,Rain,313
2012-10-20,62,47,32,46,39,32,100,77,39,29.88,29.83,29.76,10,9,0,12,3,16,0.00,2,Fog,158
2012-10-21,78,61,44,63,52,41,93,73,44,29.85,29.81,29.77,10,10,10,15,4,18,0.00,2,,162
2012-10-22,69,63,57,66,61,55,100,91,78,29.86,29.82,29.78,10,7,5,15,4,18,0.00,6,Rain,61
2012-10-23,75,65,55,63,59,55,100,89,61,29.83,29.77,29.70,10,6,0,16,7,16,0.00,5,Fog,206
2012-10-24,68,58,46,64,56,46,100,98,88,29.81,29.78,29.75,10,4,0,17,6,21,0.05,7,Fog-Rain,3
2012-10-25,46,40,32,46,36,28,100,91,75,30.35,30.02,29.67,10,8,2,30,18,38,0.78,8,Rain,334
2012-10-26,41,34,26,28,26,25,100,73,53,30.52,30.45,30.35,10,10,10,17,9,24,0.00,6,,315
2012-10-27,42,32,23,28,25,21,100,69,42,30.44,30.38,30.30,10,10,10,8,3,,0.00,2,,324
2012-10-28,48,40,32,30,28,27,87,65,43,30.37,30.32,30.27,10,10,10,13,3,17,0.00,3,,157
2012-10-29,55,46,35,30,27,25,75,52,35,30.30,30.24,30.16,10,10,7,20,9,25,0.00,4,,157
2012-10-30,51,42,30,30,26,18,87,61,26,30.18,30.12,30.08,10,10,10,10,4,,0.00,3,,83
2012-10-31,57,40,24,34,28,25,100,71,33,30.11,30.07,30.02,10,9,3,7,1,,0.00,0,,286